sensor_id;sensor_type;location;lat;lon;timestamp;pressure;altitude;pressure_sealevel;temperature;humidity
47753;BME280;2038;51.728;6.674;2022-07-06T00:01:53;101820.44;;;14.65;89.91
47753;BME280;2038;51.728;6.674;2022-07-06T00:04:20;101811.66;;;14.61;89.83
47753;BME280;2038;51.728;6.674;2022-07-06T00:06:47;101818.41;;;14.59;90.07
47753;BME280;2038;51.728;6.674;2022-07-06T00:09:14;101807.94;;;14.56;90.04
47753;BME280;2038;51.728;6.674;2022-07-06T00:11:41;101803.28;;;14.50;90.19
47753;BME280;2038;51.728;6.674;2022-07-06T00:14:07;101804.84;;;14.48;89.98
47753;BME280;2038;51.728;6.674;2022-07-06T00:16:34;101805.13;;;14.40;89.70
47753;BME280;2038;51.728;6.674;2022-07-06T00:19:00;101810.50;;;14.31;90.53
47753;BME280;2038;51.728;6.674;2022-07-06T00:21:26;101815.41;;;14.28;89.72
47753;BME280;2038;51.728;6.674;2022-07-06T00:23:53;101815.91;;;14.23;89.77
47753;BME280;2038;51.728;6.674;2022-07-06T00:26:19;101812.91;;;14.17;90.48
47753;BME280;2038;51.728;6.674;2022-07-06T00:28:46;101817.06;;;14.15;91.44
47753;BME280;2038;51.728;6.674;2022-07-06T00:31:12;101813.41;;;14.11;90.77
47753;BME280;2038;51.728;6.674;2022-07-06T00:33:39;101819.56;;;14.01;91.19
47753;BME280;2038;51.728;6.674;2022-07-06T00:36:05;101822.63;;;13.84;90.52
47753;BME280;2038;51.728;6.674;2022-07-06T00:38:32;101815.03;;;13.61;91.51
47753;BME280;2038;51.728;6.674;2022-07-06T00:40:58;101812.59;;;13.51;92.15
47753;BME280;2038;51.728;6.674;2022-07-06T00:43:24;101811.06;;;13.41;91.89
47753;BME280;2038;51.728;6.674;2022-07-06T00:45:51;101820.06;;;13.36;92.86
47753;BME280;2038;51.728;6.674;2022-07-06T00:48:17;101815.84;;;13.37;93.54
47753;BME280;2038;51.728;6.674;2022-07-06T00:50:43;101821.78;;;13.36;94.30
47753;BME280;2038;51.728;6.674;2022-07-06T00:53:11;101815.84;;;13.37;94.60
47753;BME280;2038;51.728;6.674;2022-07-06T00:55:39;101822.19;;;13.42;95.17
47753;BME280;2038;51.728;6.674;2022-07-06T00:58:07;101822.06;;;13.40;95.09
47753;BME280;2038;51.728;6.674;2022-07-06T01:00:35;101822.31;;;13.43;95.35
47753;BME280;2038;51.728;6.674;2022-07-06T01:03:02;101827.53;;;13.45;95.91
47753;BME280;2038;51.728;6.674;2022-07-06T01:05:29;101816.50;;;13.46;95.93
47753;BME280;2038;51.728;6.674;2022-07-06T01:07:55;101822.41;;;13.45;96.57
47753;BME280;2038;51.728;6.674;2022-07-06T01:10:23;101819.97;;;13.46;96.42
47753;BME280;2038;51.728;6.674;2022-07-06T01:12:49;101829.44;;;13.47;96.50
47753;BME280;2038;51.728;6.674;2022-07-06T01:15:23;101827.78;;;13.48;96.27
47753;BME280;2038;51.728;6.674;2022-07-06T01:17:51;101827.66;;;13.46;96.62
47753;BME280;2038;51.728;6.674;2022-07-06T01:20:19;101826.63;;;13.44;96.74
47753;BME280;2038;51.728;6.674;2022-07-06T01:22:49;101823.88;;;13.41;96.77
47753;BME280;2038;51.728;6.674;2022-07-06T01:25:17;101818.53;;;13.38;97.26
47753;BME280;2038;51.728;6.674;2022-07-06T01:27:44;101819.50;;;13.40;97.55
47753;BME280;2038;51.728;6.674;2022-07-06T01:30:20;101814.38;;;13.40;97.26
47753;BME280;2038;51.728;6.674;2022-07-06T01:32:47;101819.63;;;13.42;96.54
47753;BME280;2038;51.728;6.674;2022-07-06T01:35:15;101816.31;;;13.43;97.45
47753;BME280;2038;51.728;6.674;2022-07-06T01:37:42;101813.38;;;13.50;97.56
47753;BME280;2038;51.728;6.674;2022-07-06T01:40:10;101820.72;;;13.57;97.91
47753;BME280;2038;51.728;6.674;2022-07-06T01:42:37;101822.91;;;13.64;98.66
47753;BME280;2038;51.728;6.674;2022-07-06T01:45:05;101823.03;;;13.66;98.96
47753;BME280;2038;51.728;6.674;2022-07-06T01:47:32;101812.91;;;13.67;98.77
47753;BME280;2038;51.728;6.674;2022-07-06T01:50:00;101817.22;;;13.68;99.05
47753;BME280;2038;51.728;6.674;2022-07-06T01:52:27;101820.59;;;13.67;98.91
47753;BME280;2038;51.728;6.674;2022-07-06T01:54:55;101816.13;;;13.65;99.32
47753;BME280;2038;51.728;6.674;2022-07-06T01:57:22;101818.91;;;13.68;99.28
47753;BME280;2038;51.728;6.674;2022-07-06T01:59:48;101814.78;;;13.70;99.96
47753;BME280;2038;51.728;6.674;2022-07-06T02:02:14;101814.09;;;13.72;99.67
47753;BME280;2038;51.728;6.674;2022-07-06T02:04:41;101806.50;;;13.74;99.71
47753;BME280;2038;51.728;6.674;2022-07-06T02:07:07;101802.03;;;13.83;99.91
47753;BME280;2038;51.728;6.674;2022-07-06T02:09:33;101808.94;;;13.84;99.28
47753;BME280;2038;51.728;6.674;2022-07-06T02:12:00;101808.06;;;13.83;99.42
47753;BME280;2038;51.728;6.674;2022-07-06T02:14:26;101806.38;;;13.84;99.86
47753;BME280;2038;51.728;6.674;2022-07-06T02:16:52;101810.81;;;13.86;99.93
47753;BME280;2038;51.728;6.674;2022-07-06T02:19:18;101810.25;;;13.90;100.00
47753;BME280;2038;51.728;6.674;2022-07-06T02:21:45;101812.34;;;13.96;99.74
47753;BME280;2038;51.728;6.674;2022-07-06T02:24:11;101805.44;;;13.95;99.37
47753;BME280;2038;51.728;6.674;2022-07-06T02:26:37;101810.25;;;13.90;99.91
47753;BME280;2038;51.728;6.674;2022-07-06T02:29:03;101801.88;;;13.93;100.00
47753;BME280;2038;51.728;6.674;2022-07-06T02:31:30;101804.56;;;13.94;100.00
47753;BME280;2038;51.728;6.674;2022-07-06T02:33:56;101800.41;;;13.96;100.00
47753;BME280;2038;51.728;6.674;2022-07-06T02:36:22;101799.69;;;14.11;100.00
47753;BME280;2038;51.728;6.674;2022-07-06T02:38:48;101793.09;;;14.14;100.00
47753;BME280;2038;51.728;6.674;2022-07-06T02:41:14;101807.13;;;14.19;100.00
47753;BME280;2038;51.728;6.674;2022-07-06T02:43:41;101798.72;;;14.22;100.00
47753;BME280;2038;51.728;6.674;2022-07-06T02:46:07;101806.53;;;14.23;100.00
47753;BME280;2038;51.728;6.674;2022-07-06T02:48:34;101807.44;;;14.24;100.00
47753;BME280;2038;51.728;6.674;2022-07-06T02:51:00;101806.72;;;14.26;100.00
47753;BME280;2038;51.728;6.674;2022-07-06T02:53:26;101808.28;;;14.24;100.00
47753;BME280;2038;51.728;6.674;2022-07-06T02:55:53;101811.53;;;14.22;100.00
47753;BME280;2038;51.728;6.674;2022-07-06T02:58:19;101814.50;;;14.15;100.00
47753;BME280;2038;51.728;6.674;2022-07-06T03:00:45;101820.13;;;13.97;100.00
47753;BME280;2038;51.728;6.674;2022-07-06T03:03:11;101812.63;;;13.87;100.00
47753;BME280;2038;51.728;6.674;2022-07-06T03:05:37;101818.47;;;13.62;100.00
47753;BME280;2038;51.728;6.674;2022-07-06T03:08:04;101812.03;;;13.55;100.00
47753;BME280;2038;51.728;6.674;2022-07-06T03:10:30;101823.22;;;13.44;100.00
47753;BME280;2038;51.728;6.674;2022-07-06T03:12:57;101813.81;;;13.44;100.00
47753;BME280;2038;51.728;6.674;2022-07-06T03:15:23;101810.41;;;13.44;100.00
47753;BME280;2038;51.728;6.674;2022-07-06T03:17:49;101813.81;;;13.44;100.00
47753;BME280;2038;51.728;6.674;2022-07-06T03:20:15;101821.75;;;13.47;100.00
47753;BME280;2038;51.728;6.674;2022-07-06T03:22:42;101821.19;;;13.51;100.00
47753;BME280;2038;51.728;6.674;2022-07-06T03:25:08;101829.66;;;13.50;100.00
47753;BME280;2038;51.728;6.674;2022-07-06T03:27:34;101836.06;;;13.57;100.00
47753;BME280;2038;51.728;6.674;2022-07-06T03:30:02;101829.41;;;13.59;100.00
47753;BME280;2038;51.728;6.674;2022-07-06T03:32:28;101833.97;;;13.63;100.00
47753;BME280;2038;51.728;6.674;2022-07-06T03:34:55;101833.41;;;13.67;100.00
47753;BME280;2038;51.728;6.674;2022-07-06T03:37:21;101833.59;;;13.70;100.00
47753;BME280;2038;51.728;6.674;2022-07-06T03:39:47;101831.38;;;13.75;100.00
47753;BME280;2038;51.728;6.674;2022-07-06T03:42:13;101831.91;;;13.82;100.00
47753;BME280;2038;51.728;6.674;2022-07-06T03:44:40;101833.56;;;13.82;100.00
47753;BME280;2038;51.728;6.674;2022-07-06T03:47:06;101826.31;;;13.88;100.00
47753;BME280;2038;51.728;6.674;2022-07-06T03:49:32;101833.78;;;13.85;100.00
47753;BME280;2038;51.728;6.674;2022-07-06T03:51:58;101838.44;;;13.90;100.00
47753;BME280;2038;51.728;6.674;2022-07-06T03:54:25;101836.00;;;13.92;100.00
47753;BME280;2038;51.728;6.674;2022-07-06T03:56:51;101835.19;;;13.93;100.00
47753;BME280;2038;51.728;6.674;2022-07-06T03:59:17;101831.84;;;13.94;100.00
47753;BME280;2038;51.728;6.674;2022-07-06T04:01:44;101836.09;;;13.93;100.00
47753;BME280;2038;51.728;6.674;2022-07-06T04:04:11;101832.41;;;13.90;100.00
47753;BME280;2038;51.728;6.674;2022-07-06T04:06:37;101836.00;;;13.92;100.00
47753;BME280;2038;51.728;6.674;2022-07-06T04:09:04;101832.06;;;13.97;100.00
47753;BME280;2038;51.728;6.674;2022-07-06T04:11:30;101837.50;;;14.01;100.00
47753;BME280;2038;51.728;6.674;2022-07-06T04:13:57;101834.38;;;14.05;100.00
47753;BME280;2038;51.728;6.674;2022-07-06T04:16:23;101831.91;;;14.07;100.00
47753;BME280;2038;51.728;6.674;2022-07-06T04:18:49;101835.00;;;14.15;100.00
47753;BME280;2038;51.728;6.674;2022-07-06T04:21:15;101836.09;;;14.18;100.00
47753;BME280;2038;51.728;6.674;2022-07-06T04:23:41;101839.13;;;14.13;100.00
47753;BME280;2038;51.728;6.674;2022-07-06T04:26:08;101841.81;;;14.14;100.00
47753;BME280;2038;51.728;6.674;2022-07-06T04:28:34;101852.19;;;14.29;100.00
47753;BME280;2038;51.728;6.674;2022-07-06T04:31:00;101844.19;;;14.36;100.00
47753;BME280;2038;51.728;6.674;2022-07-06T04:33:27;101841.25;;;14.43;100.00
47753;BME280;2038;51.728;6.674;2022-07-06T04:35:53;101847.34;;;14.45;100.00
47753;BME280;2038;51.728;6.674;2022-07-06T04:38:19;101838.09;;;14.47;100.00
47753;BME280;2038;51.728;6.674;2022-07-06T04:40:45;101834.94;;;14.51;100.00
47753;BME280;2038;51.728;6.674;2022-07-06T04:43:14;101833.47;;;14.55;100.00
47753;BME280;2038;51.728;6.674;2022-07-06T04:45:41;101823.72;;;14.62;100.00
47753;BME280;2038;51.728;6.674;2022-07-06T04:48:07;101822.63;;;14.59;100.00
47753;BME280;2038;51.728;6.674;2022-07-06T04:50:36;101815.44;;;14.66;100.00
47753;BME280;2038;51.728;6.674;2022-07-06T04:53:02;101826.78;;;14.70;100.00
47753;BME280;2038;51.728;6.674;2022-07-06T04:55:29;101823.81;;;14.77;100.00
47753;BME280;2038;51.728;6.674;2022-07-06T04:57:55;101819.69;;;14.79;100.00
47753;BME280;2038;51.728;6.674;2022-07-06T05:00:21;101826.38;;;14.77;100.00
47753;BME280;2038;51.728;6.674;2022-07-06T05:02:48;101818.91;;;14.80;100.00
47753;BME280;2038;51.728;6.674;2022-07-06T05:05:14;101822.38;;;14.80;100.00
47753;BME280;2038;51.728;6.674;2022-07-06T05:07:40;101820.97;;;14.85;100.00
47753;BME280;2038;51.728;6.674;2022-07-06T05:10:08;101813.09;;;14.82;100.00
47753;BME280;2038;51.728;6.674;2022-07-06T05:12:36;101818.22;;;14.82;100.00
47753;BME280;2038;51.728;6.674;2022-07-06T05:15:03;101819.69;;;14.79;100.00
47753;BME280;2038;51.728;6.674;2022-07-06T05:17:30;101823.75;;;14.75;100.00
47753;BME280;2038;51.728;6.674;2022-07-06T05:19:57;101824.13;;;14.68;100.00
47753;BME280;2038;51.728;6.674;2022-07-06T05:22:24;101830.44;;;14.73;100.00
47753;BME280;2038;51.728;6.674;2022-07-06T05:24:51;101831.75;;;14.80;100.00
47753;BME280;2038;51.728;6.674;2022-07-06T05:27:17;101836.38;;;14.85;100.00
47753;BME280;2038;51.728;6.674;2022-07-06T05:29:44;101837.09;;;14.96;100.00
47753;BME280;2038;51.728;6.674;2022-07-06T05:32:10;101853.88;;;15.04;100.00
47753;BME280;2038;51.728;6.674;2022-07-06T05:34:36;101847.75;;;15.15;100.00
47753;BME280;2038;51.728;6.674;2022-07-06T05:37:04;101851.31;;;15.30;100.00
47753;BME280;2038;51.728;6.674;2022-07-06T05:39:30;101852.56;;;15.37;100.00
47753;BME280;2038;51.728;6.674;2022-07-06T05:41:56;101856.31;;;15.42;100.00
47753;BME280;2038;51.728;6.674;2022-07-06T05:44:22;101855.06;;;15.49;100.00
47753;BME280;2038;51.728;6.674;2022-07-06T05:46:49;101856.44;;;15.43;100.00
47753;BME280;2038;51.728;6.674;2022-07-06T05:49:15;101861.97;;;15.50;100.00
47753;BME280;2038;51.728;6.674;2022-07-06T05:52:00;101863.03;;;15.66;100.00
47753;BME280;2038;51.728;6.674;2022-07-06T05:54:26;101865.59;;;15.79;100.00
47753;BME280;2038;51.728;6.674;2022-07-06T05:56:52;101863.59;;;15.88;100.00
47753;BME280;2038;51.728;6.674;2022-07-06T05:59:18;101871.50;;;16.19;100.00
47753;BME280;2038;51.728;6.674;2022-07-06T06:01:44;101876.47;;;16.31;99.83
47753;BME280;2038;51.728;6.674;2022-07-06T06:04:11;101872.31;;;16.33;99.19
47753;BME280;2038;51.728;6.674;2022-07-06T06:06:37;101871.47;;;16.47;98.63
47753;BME280;2038;51.728;6.674;2022-07-06T06:09:03;101872.41;;;16.49;97.40
47753;BME280;2038;51.728;6.674;2022-07-06T06:11:29;101874.69;;;16.58;97.33
47753;BME280;2038;51.728;6.674;2022-07-06T06:13:56;101875.75;;;16.61;96.66
47753;BME280;2038;51.728;6.674;2022-07-06T06:16:22;101878.81;;;16.69;95.75
47753;BME280;2038;51.728;6.674;2022-07-06T06:18:48;101877.81;;;16.81;96.36
47753;BME280;2038;51.728;6.674;2022-07-06T06:21:14;101870.63;;;16.91;95.06
47753;BME280;2038;51.728;6.674;2022-07-06T06:23:41;101875.41;;;16.99;95.95
47753;BME280;2038;51.728;6.674;2022-07-06T06:26:07;101875.31;;;16.98;95.54
47753;BME280;2038;51.728;6.674;2022-07-06T06:28:33;101876.03;;;17.10;94.82
47753;BME280;2038;51.728;6.674;2022-07-06T06:30:59;101882.69;;;17.21;92.44
47753;BME280;2038;51.728;6.674;2022-07-06T06:33:26;101881.88;;;17.37;91.34
47753;BME280;2038;51.728;6.674;2022-07-06T06:35:53;101879.56;;;17.41;90.62
47753;BME280;2038;51.728;6.674;2022-07-06T06:38:21;101876.50;;;17.48;89.70
47753;BME280;2038;51.728;6.674;2022-07-06T06:40:51;101874.25;;;17.54;89.80
47753;BME280;2038;51.728;6.674;2022-07-06T06:43:18;101877.22;;;17.60;88.90
47753;BME280;2038;51.728;6.674;2022-07-06T06:45:44;101874.16;;;17.67;88.22
47753;BME280;2038;51.728;6.674;2022-07-06T06:48:12;101879.00;;;17.77;88.55
47753;BME280;2038;51.728;6.674;2022-07-06T06:50:38;101874.50;;;17.90;88.67
47753;BME280;2038;51.728;6.674;2022-07-06T06:53:04;101881.22;;;18.02;88.24
47753;BME280;2038;51.728;6.674;2022-07-06T06:55:31;101877.19;;;18.07;87.18
47753;BME280;2038;51.728;6.674;2022-07-06T06:57:57;101878.09;;;18.24;87.41
47753;BME280;2038;51.728;6.674;2022-07-06T07:00:23;101879.66;;;18.38;85.48
47753;BME280;2038;51.728;6.674;2022-07-06T07:02:49;101881.63;;;18.58;85.00
47753;BME280;2038;51.728;6.674;2022-07-06T07:05:16;101877.31;;;18.75;85.02
47753;BME280;2038;51.728;6.674;2022-07-06T07:07:42;101887.38;;;18.87;83.53
47753;BME280;2038;51.728;6.674;2022-07-06T07:10:09;101879.72;;;18.88;82.70
47753;BME280;2038;51.728;6.674;2022-07-06T07:12:41;101885.38;;;18.99;83.36
47753;BME280;2038;51.728;6.674;2022-07-06T07:15:09;101889.19;;;19.05;83.10
47753;BME280;2038;51.728;6.674;2022-07-06T07:17:35;101890.00;;;19.04;82.81
47753;BME280;2038;51.728;6.674;2022-07-06T07:20:01;101896.69;;;19.18;83.73
47753;BME280;2038;51.728;6.674;2022-07-06T07:22:27;101891.03;;;19.26;81.84
47753;BME280;2038;51.728;6.674;2022-07-06T07:24:54;101897.38;;;19.32;81.51
47753;BME280;2038;51.728;6.674;2022-07-06T07:27:20;101895.44;;;19.44;81.13
47753;BME280;2038;51.728;6.674;2022-07-06T07:29:46;101895.25;;;19.59;81.27
47753;BME280;2038;51.728;6.674;2022-07-06T07:32:12;101905.22;;;19.69;79.46
47753;BME280;2038;51.728;6.674;2022-07-06T07:34:38;101908.31;;;19.80;80.51
47753;BME280;2038;51.728;6.674;2022-07-06T07:37:04;101901.72;;;19.86;79.07
47753;BME280;2038;51.728;6.674;2022-07-06T07:39:30;101899.50;;;19.94;78.70
47753;BME280;2038;51.728;6.674;2022-07-06T07:41:56;101904.69;;;19.94;78.27
47753;BME280;2038;51.728;6.674;2022-07-06T07:44:22;101911.22;;;20.05;78.84
47753;BME280;2038;51.728;6.674;2022-07-06T07:46:50;101911.28;;;20.06;79.55
47753;BME280;2038;51.728;6.674;2022-07-06T07:49:18;101900.09;;;20.07;78.71
47753;BME280;2038;51.728;6.674;2022-07-06T07:51:47;101900.19;;;20.09;77.88
47753;BME280;2038;51.728;6.674;2022-07-06T07:54:14;101904.47;;;20.08;78.51
47753;BME280;2038;51.728;6.674;2022-07-06T07:56:41;101904.00;;;19.98;78.61
47753;BME280;2038;51.728;6.674;2022-07-06T07:59:07;101903.03;;;19.96;77.21
47753;BME280;2038;51.728;6.674;2022-07-06T08:01:34;101905.81;;;20.00;77.43
47753;BME280;2038;51.728;6.674;2022-07-06T08:04:01;101898.88;;;19.99;77.17
47753;BME280;2038;51.728;6.674;2022-07-06T08:06:28;101889.63;;;20.04;78.11
47753;BME280;2038;51.728;6.674;2022-07-06T08:08:54;101888.19;;;20.11;78.27
47753;BME280;2038;51.728;6.674;2022-07-06T08:11:20;101894.59;;;20.19;78.46
47753;BME280;2038;51.728;6.674;2022-07-06T08:13:47;101894.47;;;20.16;76.31
47753;BME280;2038;51.728;6.674;2022-07-06T08:16:13;101885.25;;;20.23;76.68
47753;BME280;2038;51.728;6.674;2022-07-06T08:18:40;101889.19;;;20.32;76.01
47753;BME280;2038;51.728;6.674;2022-07-06T08:21:06;101889.53;;;20.22;75.18
47753;BME280;2038;51.728;6.674;2022-07-06T08:23:33;101897.13;;;20.18;75.33
47753;BME280;2038;51.728;6.674;2022-07-06T08:26:01;101896.50;;;20.04;74.64
47753;BME280;2038;51.728;6.674;2022-07-06T08:28:28;101894.47;;;19.97;75.42
47753;BME280;2038;51.728;6.674;2022-07-06T08:30:55;101894.16;;;19.91;76.82
47753;BME280;2038;51.728;6.674;2022-07-06T08:33:22;101900.84;;;19.86;76.75
47753;BME280;2038;51.728;6.674;2022-07-06T08:35:48;101891.16;;;19.82;76.24
47753;BME280;2038;51.728;6.674;2022-07-06T08:38:15;101885.84;;;19.79;76.50
47753;BME280;2038;51.728;6.674;2022-07-06T08:40:41;101885.69;;;19.76;75.78
47753;BME280;2038;51.728;6.674;2022-07-06T08:43:11;101883.25;;;19.79;75.75
47753;BME280;2038;51.728;6.674;2022-07-06T08:45:41;101883.97;;;19.94;75.76
47753;BME280;2038;51.728;6.674;2022-07-06T08:48:10;101878.13;;;20.17;74.25
47753;BME280;2038;51.728;6.674;2022-07-06T08:50:38;101881.88;;;20.43;74.81
47753;BME280;2038;51.728;6.674;2022-07-06T08:53:05;101882.22;;;20.71;74.42
47753;BME280;2038;51.728;6.674;2022-07-06T08:55:33;101885.66;;;20.91;71.34
47753;BME280;2038;51.728;6.674;2022-07-06T08:58:00;101885.44;;;21.06;71.92
47753;BME280;2038;51.728;6.674;2022-07-06T09:00:26;101891.53;;;21.08;68.60
47753;BME280;2038;51.728;6.674;2022-07-06T09:02:53;101884.34;;;21.00;68.47
47753;BME280;2038;51.728;6.674;2022-07-06T09:05:23;101886.75;;;20.96;66.99
47753;BME280;2038;51.728;6.674;2022-07-06T09:07:51;101884.91;;;20.93;68.12
47753;BME280;2038;51.728;6.674;2022-07-06T09:10:20;101883.25;;;20.95;68.31
47753;BME280;2038;51.728;6.674;2022-07-06T09:12:48;101884.91;;;20.93;67.85
47753;BME280;2038;51.728;6.674;2022-07-06T09:15:15;101883.03;;;20.89;68.94
47753;BME280;2038;51.728;6.674;2022-07-06T09:17:43;101883.25;;;20.75;67.45
47753;BME280;2038;51.728;6.674;2022-07-06T09:20:11;101880.13;;;20.63;67.44
47753;BME280;2038;51.728;6.674;2022-07-06T09:22:39;101876.69;;;20.62;68.10
47753;BME280;2038;51.728;6.674;2022-07-06T09:25:08;101883.94;;;20.50;67.60
47753;BME280;2038;51.728;6.674;2022-07-06T09:27:45;101879.63;;;20.31;68.35
47753;BME280;2038;51.728;6.674;2022-07-06T09:30:21;101881.81;;;20.41;67.04
47753;BME280;2038;51.728;6.674;2022-07-06T09:32:53;101877.91;;;20.51;67.89
47753;BME280;2038;51.728;6.674;2022-07-06T09:35:27;101873.81;;;20.56;68.32
47753;BME280;2038;51.728;6.674;2022-07-06T09:38:02;101870.16;;;20.72;67.46
47753;BME280;2038;51.728;6.674;2022-07-06T09:40:36;101873.59;;;20.91;67.03
47753;BME280;2038;51.728;6.674;2022-07-06T09:45:35;101876.69;;;21.03;64.73
47753;BME280;2038;51.728;6.674;2022-07-06T09:48:17;101878.66;;;21.09;64.02
47753;BME280;2038;51.728;6.674;2022-07-06T09:50:53;101879.59;;;20.90;64.73
47753;BME280;2038;51.728;6.674;2022-07-06T09:53:35;101873.19;;;21.03;65.39
47753;BME280;2038;51.728;6.674;2022-07-06T09:56:02;101880.50;;;21.12;65.07
47753;BME280;2038;51.728;6.674;2022-07-06T09:58:28;101882.00;;;21.07;64.94
47753;BME280;2038;51.728;6.674;2022-07-06T10:00:55;101882.63;;;20.80;66.43
47753;BME280;2038;51.728;6.674;2022-07-06T10:03:22;101883.44;;;20.79;67.88
47753;BME280;2038;51.728;6.674;2022-07-06T10:05:48;101883.31;;;20.76;66.30
47753;BME280;2038;51.728;6.674;2022-07-06T10:08:16;101889.28;;;20.74;66.64
47753;BME280;2038;51.728;6.674;2022-07-06T10:10:44;101879.59;;;20.70;68.07
47753;BME280;2038;51.728;6.674;2022-07-06T10:13:11;101873.63;;;20.51;69.41
47753;BME280;2038;51.728;6.674;2022-07-06T10:15:39;101882.13;;;20.68;69.05
47753;BME280;2038;51.728;6.674;2022-07-06T10:18:08;101885.13;;;20.98;67.02
47753;BME280;2038;51.728;6.674;2022-07-06T10:20:37;101879.81;;;21.16;65.41
47753;BME280;2038;51.728;6.674;2022-07-06T10:23:06;101883.91;;;21.31;65.65
47753;BME280;2038;51.728;6.674;2022-07-06T10:25:34;101872.91;;;21.37;64.83
47753;BME280;2038;51.728;6.674;2022-07-06T10:28:01;101885.19;;;21.42;61.86
47753;BME280;2038;51.728;6.674;2022-07-06T10:30:29;101886.09;;;21.43;62.30
47753;BME280;2038;51.728;6.674;2022-07-06T10:32:57;101886.81;;;21.61;60.82
47753;BME280;2038;51.728;6.674;2022-07-06T10:35:25;101878.50;;;21.70;61.68
47753;BME280;2038;51.728;6.674;2022-07-06T10:38:08;101887.09;;;21.91;61.08
47753;BME280;2038;51.728;6.674;2022-07-06T10:40:40;101887.06;;;21.89;60.67
47753;BME280;2038;51.728;6.674;2022-07-06T10:43:33;101884.50;;;21.91;59.65
47753;BME280;2038;51.728;6.674;2022-07-06T10:46:04;101877.09;;;22.00;61.28
47753;BME280;2038;51.728;6.674;2022-07-06T10:48:36;101880.25;;;22.15;59.63
47753;BME280;2038;51.728;6.674;2022-07-06T10:51:07;101876.94;;;22.19;59.64
47753;BME280;2038;51.728;6.674;2022-07-06T10:53:39;101882.63;;;22.09;58.22
47753;BME280;2038;51.728;6.674;2022-07-06T10:56:08;101872.63;;;21.96;60.49
47753;BME280;2038;51.728;6.674;2022-07-06T10:58:49;101869.91;;;21.93;61.86
47753;BME280;2038;51.728;6.674;2022-07-06T11:01:18;101872.06;;;22.05;62.32
47753;BME280;2038;51.728;6.674;2022-07-06T11:03:48;101871.44;;;22.10;62.80
47753;BME280;2038;51.728;6.674;2022-07-06T11:06:21;101860.84;;;21.83;64.37
47753;BME280;2038;51.728;6.674;2022-07-06T11:08:53;101867.09;;;21.88;62.00
47753;BME280;2038;51.728;6.674;2022-07-06T11:14:17;101868.91;;;21.91;61.59
47753;BME280;2038;51.728;6.674;2022-07-06T11:19:23;101865.00;;;22.01;60.42
47753;BME280;2038;51.728;6.674;2022-07-06T11:21:52;101865.38;;;22.11;60.00
47753;BME280;2038;51.728;6.674;2022-07-06T11:24:41;101863.63;;;22.10;59.73
47753;BME280;2038;51.728;6.674;2022-07-06T11:27:08;101862.84;;;22.13;59.51
47753;BME280;2038;51.728;6.674;2022-07-06T11:29:35;101859.47;;;22.15;60.73
47753;BME280;2038;51.728;6.674;2022-07-06T11:32:06;101863.78;;;22.15;60.71
47753;BME280;2038;51.728;6.674;2022-07-06T11:34:39;101864.84;;;22.20;59.64
47753;BME280;2038;51.728;6.674;2022-07-06T11:37:10;101863.06;;;22.19;61.04
47753;BME280;2038;51.728;6.674;2022-07-06T11:39:40;101851.84;;;22.20;61.31
47753;BME280;2038;51.728;6.674;2022-07-06T11:42:09;101857.13;;;22.23;59.20
47753;BME280;2038;51.728;6.674;2022-07-06T11:44:37;101854.53;;;22.23;59.19
47753;BME280;2038;51.728;6.674;2022-07-06T11:47:04;101847.91;;;22.31;60.58
47753;BME280;2038;51.728;6.674;2022-07-06T11:49:34;101847.97;;;22.32;58.71
47753;BME280;2038;51.728;6.674;2022-07-06T11:52:09;101843.03;;;22.40;58.95
47753;BME280;2038;51.728;6.674;2022-07-06T11:54:37;101838.22;;;22.51;58.62
47753;BME280;2038;51.728;6.674;2022-07-06T11:57:07;101840.41;;;22.38;57.21
47753;BME280;2038;51.728;6.674;2022-07-06T11:59:37;101837.09;;;22.43;57.82
47753;BME280;2038;51.728;6.674;2022-07-06T12:02:06;101835.00;;;22.58;57.14
47753;BME280;2038;51.728;6.674;2022-07-06T12:04:34;101839.47;;;22.62;56.30
47753;BME280;2038;51.728;6.674;2022-07-06T12:07:04;101840.84;;;22.76;56.69
47753;BME280;2038;51.728;6.674;2022-07-06T12:09:34;101838.91;;;22.96;58.00
47753;BME280;2038;51.728;6.674;2022-07-06T12:12:03;101833.94;;;23.03;59.14
47753;BME280;2038;51.728;6.674;2022-07-06T12:14:34;101830.72;;;23.10;59.69
47753;BME280;2038;51.728;6.674;2022-07-06T12:17:06;101841.94;;;23.09;56.77
47753;BME280;2038;51.728;6.674;2022-07-06T12:19:35;101837.63;;;23.10;56.50
47753;BME280;2038;51.728;6.674;2022-07-06T12:22:04;101830.53;;;23.32;56.43
47753;BME280;2038;51.728;6.674;2022-07-06T12:24:32;101825.97;;;23.52;55.74
47753;BME280;2038;51.728;6.674;2022-07-06T12:27:14;101823.44;;;23.54;54.93
47753;BME280;2038;51.728;6.674;2022-07-06T12:29:42;101823.72;;;23.64;53.49
47753;BME280;2038;51.728;6.674;2022-07-06T12:32:19;101822.06;;;23.66;54.55
47753;BME280;2038;51.728;6.674;2022-07-06T12:35:05;101814.41;;;23.71;54.59
47753;BME280;2038;51.728;6.674;2022-07-06T12:37:34;101808.84;;;23.60;53.20
47753;BME280;2038;51.728;6.674;2022-07-06T12:40:00;101810.84;;;23.41;54.82
47753;BME280;2038;51.728;6.674;2022-07-06T12:42:28;101810.78;;;23.39;54.98
47753;BME280;2038;51.728;6.674;2022-07-06T12:44:54;101807.56;;;23.19;54.40
47753;BME280;2038;51.728;6.674;2022-07-06T12:47:22;101802.88;;;23.08;54.07
47753;BME280;2038;51.728;6.674;2022-07-06T12:50:04;101798.94;;;23.20;53.94
47753;BME280;2038;51.728;6.674;2022-07-06T12:52:32;101786.22;;;23.29;54.40
47753;BME280;2038;51.728;6.674;2022-07-06T12:55:00;101787.19;;;23.33;55.03
47753;BME280;2038;51.728;6.674;2022-07-06T12:57:27;101774.94;;;23.29;55.05
47753;BME280;2038;51.728;6.674;2022-07-06T13:00:09;101780.31;;;22.80;54.99
47753;BME280;2038;51.728;6.674;2022-07-06T13:02:36;101786.69;;;22.64;55.32
47753;BME280;2038;51.728;6.674;2022-07-06T13:05:10;101792.63;;;22.60;55.44
47753;BME280;2038;51.728;6.674;2022-07-06T13:07:43;101782.06;;;22.56;55.50
47753;BME280;2038;51.728;6.674;2022-07-06T13:10:11;101789.81;;;22.79;56.13